Time;durP1;ratioP1;P1;durP2;ratioP2;P2;SDS_P1;SDS_P2;PMS_P1;PMS_P2;Temp;Humidity;BMP_temperature;BMP_pressure;BME280_temperature;BME280_humidity;BME280_pressure;Samples;Min_cycle;Max_cycle;Signal;HPM_P1;HPM_P2
2022/05/01 00:01:30;;;;;;;11.33;8.70;;;11.80;91.40;;;;;;5053201;28;20219;-37
2022/05/01 00:03:58;;;;;;;8.60;7.77;;;11.80;91.40;;;;;;5027693;28;20204;-36
2022/05/01 00:06:25;;;;;;;10.00;8.57;;;11.70;91.30;;;;;;5027654;28;20586;-37
2022/05/01 00:08:52;;;;;;;10.73;8.47;;;11.70;91.30;;;;;;5043906;28;20212;-36
2022/05/01 00:11:19;;;;;;;11.03;8.70;;;11.70;91.30;;;;;;5042532;28;20540;-36
2022/05/01 00:13:47;;;;;;;10.83;8.40;;;11.60;91.30;;;;;;5032310;28;20202;-36
2022/05/01 00:16:16;;;;;;;10.70;8.70;;;11.60;91.30;;;;;;5045425;28;20200;-36
2022/05/01 00:18:44;;;;;;;11.10;8.50;;;11.60;91.40;;;;;;5036374;28;20220;-39
2022/05/01 00:21:12;;;;;;;9.87;8.67;;;11.50;91.30;;;;;;5041676;28;20342;-39
2022/05/01 00:23:41;;;;;;;10.00;9.00;;;11.50;91.30;;;;;;5021836;28;20602;-39
2022/05/01 00:26:09;;;;;;;12.13;8.93;;;11.50;91.40;;;;;;5031810;28;20338;-36
2022/05/01 00:28:38;;;;;;;10.70;9.23;;;11.50;91.40;;;;;;5041858;28;20278;-36
2022/05/01 00:31:07;;;;;;;10.40;8.87;;;11.40;91.30;;;;;;5028510;28;20229;-36
2022/05/01 00:36:25;;;;;;;11.50;9.10;;;11.40;91.30;;;;;;5027660;28;20255;-36
2022/05/01 00:38:57;;;;;;;14.80;9.53;;;11.40;91.30;;;;;;5028366;28;20690;-37
2022/05/01 00:41:26;;;;;;;11.43;9.80;;;11.30;91.50;;;;;;5032216;28;20435;-37
2022/05/01 00:44:03;;;;;;;11.63;9.80;;;11.30;91.30;;;;;;5028070;28;20607;-36
2022/05/01 00:46:33;;;;;;;10.47;8.70;;;11.30;91.50;;;;;;5027793;28;20205;-38
2022/05/01 00:49:04;;;;;;;10.77;9.30;;;11.20;91.30;;;;;;5027409;28;20201;-37
2022/05/01 00:51:41;;;;;;;11.83;9.80;;;11.20;91.40;;;;;;5028307;28;20237;-39
2022/05/01 00:54:09;;;;;;;11.63;9.53;;;11.20;91.50;;;;;;5031265;28;20266;-39
2022/05/01 00:56:40;;;;;;;13.60;10.10;;;11.10;91.30;;;;;;5029026;28;20327;-39
2022/05/01 00:59:09;;;;;;;13.33;10.47;;;11.10;91.30;;;;;;5026804;28;20197;-40
2022/05/01 01:01:38;;;;;;;12.03;10.13;;;11.10;91.30;;;;;;5044131;28;20307;-39
2022/05/01 01:04:06;;;;;;;13.07;10.43;;;11.10;91.40;;;;;;5027967;28;20200;-39
2022/05/01 01:06:34;;;;;;;12.87;10.30;;;11.00;91.30;;;;;;5033424;28;20560;-38
2022/05/01 01:09:05;;;;;;;13.13;10.70;;;11.00;91.30;;;;;;5041263;28;20204;-39
2022/05/01 01:11:36;;;;;;;13.30;10.50;;;11.00;91.30;;;;;;5037583;28;20208;-40
2022/05/01 01:14:06;;;;;;;13.83;11.77;;;10.90;91.30;;;;;;5048302;28;20211;-39
2022/05/01 01:16:38;;;;;;;16.50;11.97;;;10.90;91.40;;;;;;5047443;28;20204;-36
2022/05/01 01:19:07;;;;;;;16.57;12.17;;;10.80;91.40;;;;;;5051697;28;20580;-36
2022/05/01 01:21:35;;;;;;;15.53;11.70;;;10.80;91.40;;;;;;5049744;28;20196;-36
2022/05/01 01:24:06;;;;;;;16.10;12.37;;;10.80;91.40;;;;;;5046512;28;20205;-36
2022/05/01 01:26:34;;;;;;;15.07;11.90;;;10.70;91.40;;;;;;5046730;28;20295;-36
2022/05/01 01:31:40;;;;;;;15.93;11.80;;;10.70;91.40;;;;;;5039482;28;20239;-36
2022/05/01 01:31:50;;;;;;;15.00;12.30;;;10.70;91.40;;;;;;5044897;28;20235;-36
2022/05/01 01:34:25;;;;;;;15.40;12.77;;;10.60;91.40;;;;;;5026593;28;20296;-36
2022/05/01 01:36:53;;;;;;;15.03;12.60;;;10.60;91.50;;;;;;5027466;28;20208;-36
2022/05/01 01:39:23;;;;;;;14.17;12.57;;;10.60;91.40;;;;;;5027131;28;20223;-37
2022/05/01 01:41:52;;;;;;;16.70;13.37;;;10.50;91.50;;;;;;5026827;28;20243;-36
2022/05/01 01:44:21;;;;;;;17.30;13.13;;;10.40;91.50;;;;;;5027838;28;20201;-36
2022/05/01 01:46:49;;;;;;;16.03;12.80;;;10.40;91.50;;;;;;5026431;28;20220;-36
2022/05/01 01:49:17;;;;;;;19.30;13.87;;;10.40;91.60;;;;;;5027408;28;20631;-39
2022/05/01 01:51:45;;;;;;;18.67;13.97;;;10.30;91.50;;;;;;5028086;28;20201;-39
2022/05/01 01:54:12;;;;;;;17.63;14.03;;;10.30;91.50;;;;;;5027447;28;20220;-39
2022/05/01 01:56:39;;;;;;;16.50;13.27;;;10.20;91.50;;;;;;5038385;28;20247;-38
2022/05/01 01:59:07;;;;;;;18.27;13.70;;;10.20;91.50;;;;;;5039997;28;20308;-39
2022/05/01 02:01:35;;;;;;;21.10;14.17;;;10.20;91.50;;;;;;5042689;28;20192;-39
2022/05/01 02:04:04;;;;;;;18.37;14.20;;;10.20;91.60;;;;;;5031264;28;20621;-39
2022/05/01 02:06:31;;;;;;;20.57;14.90;;;10.10;91.50;;;;;;5037218;28;20285;-39
2022/05/01 02:09:01;;;;;;;18.40;14.73;;;10.10;91.50;;;;;;5029410;28;20205;-39
2022/05/01 02:11:28;;;;;;;20.03;15.40;;;10.10;91.60;;;;;;5037281;28;20266;-39
2022/05/01 02:13:55;;;;;;;19.17;14.87;;;10.10;91.60;;;;;;5036711;28;20220;-38
2022/05/01 02:16:26;;;;;;;19.13;15.10;;;10.10;91.60;;;;;;5047684;28;20219;-39
2022/05/01 02:18:53;;;;;;;16.83;14.03;;;10.00;91.60;;;;;;5044689;28;20709;-39
2022/05/01 02:21:35;;;;;;;19.20;14.97;;;10.00;91.60;;;;;;5047493;28;20208;-39
2022/05/01 02:24:07;;;;;;;18.63;15.33;;;10.00;91.60;;;;;;5032504;28;20209;-39
2022/05/01 02:26:35;;;;;;;20.00;15.10;;;10.00;91.70;;;;;;5038339;28;20610;-39
2022/05/01 02:29:09;;;;;;;22.07;15.77;;;10.00;91.70;;;;;;5046454;28;20208;-39
2022/05/01 02:31:41;;;;;;;22.17;16.20;;;9.90;92.20;;;;;;5046379;28;20219;-40
2022/05/01 02:34:10;;;;;;;20.70;17.20;;;9.90;92.20;;;;;;5045207;28;20197;-39
2022/05/01 02:36:40;;;;;;;22.77;16.60;;;9.90;92.20;;;;;;5027618;28;20639;-39
2022/05/01 02:39:07;;;;;;;19.13;15.47;;;9.90;92.30;;;;;;5030873;28;20208;-40
2022/05/01 02:41:35;;;;;;;23.67;16.77;;;9.80;92.20;;;;;;5039712;28;20609;-40
2022/05/01 02:44:06;;;;;;;20.63;16.00;;;9.80;92.30;;;;;;5038263;28;20638;-39
2022/05/01 02:46:36;;;;;;;21.63;16.63;;;9.80;92.20;;;;;;5047458;28;20218;-39
2022/05/01 02:49:05;;;;;;;21.00;16.57;;;9.70;92.30;;;;;;5044182;28;20499;-39
2022/05/01 02:51:33;;;;;;;20.50;15.60;;;9.70;92.30;;;;;;5029375;28;20223;-39
2022/05/01 02:54:04;;;;;;;21.03;16.90;;;9.70;92.70;;;;;;5030876;28;20216;-44
2022/05/01 02:56:31;;;;;;;19.37;16.20;;;9.60;92.30;;;;;;5029697;28;20725;-40
2022/05/01 02:59:00;;;;;;;20.70;16.03;;;9.60;92.40;;;;;;5048907;28;20254;-38
2022/05/01 03:01:29;;;;;;;21.00;16.07;;;9.50;92.30;;;;;;5041628;28;20232;-36
2022/05/01 03:03:56;;;;;;;23.00;17.43;;;9.50;92.70;;;;;;5034919;28;20286;-36
2022/05/01 03:06:23;;;;;;;21.17;17.27;;;9.40;92.30;;;;;;5030438;28;20215;-36
2022/05/01 03:08:50;;;;;;;21.70;16.93;;;9.40;92.40;;;;;;5030066;28;20328;-36
2022/05/01 03:11:18;;;;;;;20.73;16.97;;;9.30;92.30;;;;;;5035958;28;20427;-35
2022/05/01 03:13:46;;;;;;;22.03;17.00;;;9.30;92.40;;;;;;5039428;28;20193;-36
2022/05/01 03:16:13;;;;;;;24.23;18.00;;;9.20;92.30;;;;;;5030467;28;20197;-36
2022/05/01 03:24:12;;;;;;;23.30;18.20;;;9.10;92.30;;;;;;5029583;28;20220;-36
2022/05/01 03:26:42;;;;;;;25.80;18.30;;;9.00;92.30;;;;;;5047452;28;20683;-36
2022/05/01 03:29:14;;;;;;;25.10;18.27;;;9.00;92.30;;;;;;5049613;28;20678;-36
2022/05/01 03:31:41;;;;;;;24.40;18.23;;;9.00;92.40;;;;;;5047339;28;20490;-36
2022/05/01 03:34:09;;;;;;;24.60;18.10;;;9.00;92.40;;;;;;5046822;28;20204;-36
2022/05/01 03:36:36;;;;;;;24.67;17.77;;;8.90;92.30;;;;;;5050029;28;20673;-36
2022/05/01 03:39:05;;;;;;;25.17;18.07;;;8.90;92.30;;;;;;5037142;28;20638;-36
2022/05/01 03:41:34;;;;;;;23.53;19.17;;;8.90;92.20;;;;;;5028856;28;20584;-36
2022/05/01 03:44:02;;;;;;;24.93;18.90;;;8.80;92.30;;;;;;5038532;28;20207;-36
2022/05/01 03:46:29;;;;;;;24.60;19.13;;;8.80;92.30;;;;;;5032948;28;20580;-36
2022/05/01 03:48:57;;;;;;;26.57;20.30;;;8.80;92.40;;;;;;5039968;28;20204;-36
2022/05/01 03:51:27;;;;;;;27.97;20.10;;;8.80;92.70;;;;;;5041493;28;20224;-36
2022/05/01 03:53:54;;;;;;;30.63;21.30;;;8.70;92.30;;;;;;5039417;28;20260;-36
2022/05/01 03:56:21;;;;;;;26.70;20.27;;;8.70;92.30;;;;;;5029579;28;20286;-36
2022/05/01 03:58:49;;;;;;;28.27;20.67;;;8.70;92.40;;;;;;5039792;28;20208;-36
2022/05/01 04:01:16;;;;;;;25.83;20.23;;;8.70;92.40;;;;;;5044883;28;20299;-36
2022/05/01 04:03:46;;;;;;;27.17;20.10;;;8.70;92.40;;;;;;5029513;28;20212;-36
2022/05/01 04:06:13;;;;;;;28.00;19.30;;;8.70;92.50;;;;;;5030074;28;20233;-36
2022/05/01 04:08:42;;;;;;;26.07;19.50;;;8.70;92.50;;;;;;5042896;28;20227;-36
2022/05/01 04:11:09;;;;;;;27.30;19.17;;;8.60;92.50;;;;;;5047534;28;20270;-36
2022/05/01 04:13:39;;;;;;;27.73;22.23;;;8.60;92.40;;;;;;5044554;28;20474;-36
2022/05/01 04:16:07;;;;;;;30.57;20.57;;;8.60;92.50;;;;;;5041604;28;20214;-36
2022/05/01 04:18:37;;;;;;;28.03;21.03;;;8.60;92.50;;;;;;5046449;28;20682;-36
2022/05/01 04:21:04;;;;;;;26.73;21.07;;;8.50;92.50;;;;;;5049073;28;20257;-36
2022/05/01 04:23:32;;;;;;;25.50;20.67;;;8.50;92.50;;;;;;5044857;28;20212;-36
2022/05/01 04:26:03;;;;;;;27.23;20.70;;;8.50;92.80;;;;;;5047614;28;20204;-36
2022/05/01 04:28:31;;;;;;;29.20;21.67;;;8.50;92.50;;;;;;5029694;28;20217;-36
2022/05/01 04:30:58;;;;;;;30.33;21.83;;;8.40;92.50;;;;;;5029142;28;20323;-36
2022/05/01 04:33:31;;;;;;;25.13;20.23;;;8.40;92.50;;;;;;5042156;28;20200;-36
2022/05/01 04:35:59;;;;;;;28.33;21.13;;;8.40;92.50;;;;;;5037959;28;20582;-36
2022/05/01 04:38:26;;;;;;;29.20;19.97;;;8.40;92.60;;;;;;5028213;28;20224;-36
2022/05/01 04:40:58;;;;;;;25.00;18.43;;;8.40;92.50;;;;;;5047712;28;20661;-36
2022/05/01 04:43:28;;;;;;;19.77;15.80;;;8.50;92.70;;;;;;5041633;28;20201;-36
2022/05/01 04:45:57;;;;;;;22.63;17.10;;;8.50;92.60;;;;;;5028423;28;20209;-36
2022/05/01 04:48:26;;;;;;;25.30;16.97;;;8.50;92.70;;;;;;5034082;28;20259;-36
2022/05/01 04:50:54;;;;;;;19.47;15.60;;;8.50;92.70;;;;;;5048246;28;20745;-36
2022/05/01 04:53:24;;;;;;;20.67;16.60;;;8.50;92.60;;;;;;5032920;28;20208;-36
2022/05/01 04:55:52;;;;;;;23.93;18.03;;;8.50;92.70;;;;;;5031109;28;20223;-36
2022/05/01 04:58:23;;;;;;;21.50;17.53;;;8.50;92.60;;;;;;5048117;28;20200;-36
2022/05/01 05:00:51;;;;;;;21.87;17.50;;;8.50;92.60;;;;;;5052313;28;20690;-36
2022/05/01 05:03:18;;;;;;;24.07;16.70;;;8.50;92.70;;;;;;5040494;28;20963;-36
2022/05/01 05:05:50;;;;;;;19.40;16.40;;;8.50;92.60;;;;;;5045217;28;20480;-36
2022/05/01 05:11:17;;;;;;;21.07;16.90;;;8.60;92.70;;;;;;5033888;28;20240;-36
2022/05/01 05:13:44;;;;;;;23.13;18.13;;;8.60;92.70;;;;;;5045999;28;20208;-36
2022/05/01 05:16:14;;;;;;;23.73;18.93;;;8.60;92.70;;;;;;5028864;28;20208;-36
2022/05/01 05:18:41;;;;;;;23.40;18.37;;;8.70;92.80;;;;;;5029389;28;20620;-36
2022/05/01 05:21:11;;;;;;;24.23;17.97;;;8.70;92.90;;;;;;5038465;28;20204;-36
2022/05/01 05:23:38;;;;;;;23.77;19.43;;;8.70;92.90;;;;;;5046980;28;20246;-36
2022/05/01 05:26:05;;;;;;;26.27;20.73;;;8.70;93.00;;;;;;5037206;28;20680;-36
2022/05/01 05:28:33;;;;;;;28.27;21.00;;;8.80;93.00;;;;;;5048033;28;21006;-39
2022/05/01 05:31:04;;;;;;;25.77;19.43;;;8.80;93.00;;;;;;5038363;28;20568;-39
2022/05/01 05:33:34;;;;;;;23.87;19.43;;;8.90;93.10;;;;;;5038392;28;20223;-38
2022/05/01 05:36:02;;;;;;;23.37;19.07;;;8.90;93.10;;;;;;5026255;28;20312;-38
2022/05/01 05:38:29;;;;;;;25.10;19.77;;;9.00;93.10;;;;;;5024339;28;20235;-38
2022/05/01 05:40:56;;;;;;;26.63;18.93;;;9.00;93.20;;;;;;5026737;28;20207;-39
2022/05/01 05:43:24;;;;;;;26.03;20.37;;;9.10;93.20;;;;;;5032419;28;20247;-38
2022/05/01 05:45:51;;;;;;;27.03;20.07;;;9.20;93.30;;;;;;5042397;28;20727;-38
2022/05/01 05:48:18;;;;;;;26.17;20.50;;;9.20;93.40;;;;;;5038464;28;20291;-38
2022/05/01 05:50:45;;;;;;;28.77;21.57;;;9.30;93.40;;;;;;5034669;28;20228;-39
2022/05/01 05:53:15;;;;;;;27.97;21.03;;;9.40;93.40;;;;;;5037507;28;20227;-38
2022/05/01 05:55:45;;;;;;;25.77;20.87;;;9.40;93.50;;;;;;5034209;28;20259;-39
2022/05/01 05:58:12;;;;;;;27.37;21.53;;;9.50;93.50;;;;;;5052204;28;20249;-39
2022/05/01 06:00:39;;;;;;;28.90;22.27;;;9.50;93.50;;;;;;5042022;28;20363;-39
2022/05/01 06:03:06;;;;;;;29.87;22.83;;;9.60;93.60;;;;;;5027402;28;20300;-37
2022/05/01 06:05:34;;;;;;;26.90;21.67;;;9.60;93.60;;;;;;5028265;28;20615;-40
2022/05/01 06:08:01;;;;;;;27.83;21.93;;;9.70;93.60;;;;;;5039403;28;20220;-41
2022/05/01 06:10:28;;;;;;;29.23;22.77;;;9.80;93.70;;;;;;5028519;28;20197;-38
2022/05/01 06:12:55;;;;;;;28.13;22.17;;;9.80;93.70;;;;;;5044368;28;20231;-37
2022/05/01 06:15:23;;;;;;;30.57;23.43;;;9.80;93.80;;;;;;5042597;28;20208;-38
2022/05/01 06:17:51;;;;;;;29.67;23.73;;;9.90;93.80;;;;;;5046278;28;20338;-38
2022/05/01 06:20:23;;;;;;;32.90;24.20;;;10.00;93.40;;;;;;5044268;28;20203;-39
2022/05/01 06:22:52;;;;;;;30.10;23.97;;;10.10;93.40;;;;;;5037500;28;20315;-39
2022/05/01 06:25:20;;;;;;;33.37;25.50;;;10.10;93.40;;;;;;5051212;28;20203;-39
2022/05/01 06:27:47;;;;;;;32.83;25.43;;;10.20;93.50;;;;;;5050521;28;20220;-38
2022/05/01 06:30:17;;;;;;;29.37;23.73;;;10.20;93.50;;;;;;5049838;28;20238;-39
2022/05/01 06:32:44;;;;;;;33.87;24.67;;;10.30;93.60;;;;;;5046702;28;20347;-38
2022/05/01 06:35:12;;;;;;;31.03;23.53;;;10.30;93.70;;;;;;5032446;28;20410;-39
2022/05/01 06:37:42;;;;;;;31.10;24.00;;;10.40;93.70;;;;;;5042524;28;20201;-39
2022/05/01 06:40:09;;;;;;;31.37;24.20;;;10.40;93.70;;;;;;5050962;28;20253;-37
2022/05/01 06:42:38;;;;;;;31.30;25.30;;;10.40;93.70;;;;;;5044634;28;20212;-38
2022/05/01 06:45:05;;;;;;;29.23;23.10;;;10.50;93.80;;;;;;5042600;28;20209;-38
2022/05/01 06:47:33;;;;;;;27.83;23.07;;;10.50;93.80;;;;;;5034768;28;20291;-39
2022/05/01 06:50:00;;;;;;;27.97;22.80;;;10.60;93.80;;;;;;5031446;28;20220;-39
2022/05/01 06:52:28;;;;;;;28.77;23.73;;;10.60;93.80;;;;;;5033327;28;20699;-40
2022/05/01 06:54:56;;;;;;;30.80;24.17;;;10.70;93.90;;;;;;5035316;28;20208;-38
2022/05/01 06:57:26;;;;;;;30.57;25.33;;;10.70;93.90;;;;;;5031981;28;20225;-40
2022/05/01 06:59:53;;;;;;;30.83;24.10;;;10.80;94.00;;;;;;5069967;28;20215;-38
2022/05/01 07:02:23;;;;;;;31.77;24.80;;;10.80;94.00;;;;;;5048236;28;20285;-39
2022/05/01 07:04:51;;;;;;;30.73;24.07;;;10.90;94.00;;;;;;5038246;28;20200;-39
2022/05/01 07:07:18;;;;;;;28.20;22.57;;;10.90;94.10;;;;;;5037225;28;20223;-39
2022/05/01 07:09:48;;;;;;;27.70;22.80;;;11.00;94.10;;;;;;5036402;28;20308;-39
2022/05/01 07:12:18;;;;;;;29.70;23.83;;;11.00;94.10;;;;;;5033798;28;20223;-39
2022/05/01 07:14:45;;;;;;;30.67;23.30;;;11.10;94.30;;;;;;5037196;28;20459;-40
2022/05/01 07:17:13;;;;;;;27.20;20.90;;;11.10;94.30;;;;;;5039482;28;20766;-38
2022/05/01 07:19:42;;;;;;;27.13;21.73;;;11.10;94.30;;;;;;5048644;28;20303;-39
2022/05/01 07:22:13;;;;;;;26.50;22.20;;;11.20;94.40;;;;;;5047885;28;20212;-39
2022/05/01 07:24:41;;;;;;;30.60;23.40;;;11.30;94.40;;;;;;5039828;28;20196;-39
2022/05/01 07:27:08;;;;;;;27.83;21.40;;;11.40;94.50;;;;;;5041110;28;20695;-38
2022/05/01 07:29:36;;;;;;;24.53;19.87;;;11.40;94.40;;;;;;5043854;28;20238;-38
2022/05/01 07:32:04;;;;;;;27.83;21.13;;;11.50;94.60;;;;;;5049832;28;20322;-39
2022/05/01 07:34:31;;;;;;;27.20;21.93;;;11.60;94.60;;;;;;5037284;28;20215;-40
2022/05/01 07:36:58;;;;;;;26.20;20.83;;;11.60;94.70;;;;;;5027642;28;20485;-39
2022/05/01 07:39:26;;;;;;;26.13;20.17;;;11.70;94.80;;;;;;5046928;28;20238;-38
2022/05/01 07:41:53;;;;;;;24.30;21.00;;;11.70;94.80;;;;;;5036829;28;20470;-38
2022/05/01 07:44:20;;;;;;;25.10;20.00;;;11.80;94.80;;;;;;5036860;28;20216;-38
2022/05/01 07:46:48;;;;;;;22.57;18.87;;;11.90;94.90;;;;;;5039752;28;20595;-39
2022/05/01 07:49:18;;;;;;;19.60;17.43;;;11.90;94.90;;;;;;5048605;28;20200;-39
2022/05/01 07:51:45;;;;;;;24.70;19.20;;;12.00;94.90;;;;;;5049484;28;20216;-39
2022/05/01 07:54:15;;;;;;;23.60;18.90;;;12.10;95.00;;;;;;5047249;28;20285;-39
2022/05/01 07:56:45;;;;;;;21.90;16.53;;;12.10;95.00;;;;;;5039845;28;20592;-39
2022/05/01 07:59:13;;;;;;;17.23;13.77;;;12.20;95.00;;;;;;5053276;28;20201;-40
2022/05/01 08:01:43;;;;;;;19.00;14.83;;;12.30;95.00;;;;;;5047097;28;20331;-39
2022/05/01 08:04:28;;;;;;;16.77;14.10;;;12.40;95.00;;;;;;5029417;28;20283;-39
2022/05/01 08:07:02;;;;;;;16.23;11.43;;;12.40;95.00;;;;;;5027672;28;20213;-40
2022/05/01 08:09:32;;;;;;;14.40;11.67;;;12.50;95.00;;;;;;5033456;28;20196;-40
2022/05/01 08:12:04;;;;;;;16.27;13.00;;;12.60;95.00;;;;;;5027535;28;20248;-39
2022/05/01 08:14:31;;;;;;;14.33;12.77;;;12.60;95.00;;;;;;5027385;28;20225;-39
2022/05/01 08:16:58;;;;;;;18.85;14.57;;;12.60;95.30;;;;;;5038469;28;20627;-39
2022/05/01 08:22:12;;;;;;;13.70;11.33;;;12.70;95.10;;;;;;5032657;28;20205;-36
2022/05/01 08:24:39;;;;;;;15.33;12.70;;;12.80;95.00;;;;;;5029643;28;20223;-35
2022/05/01 08:27:07;;;;;;;14.20;12.30;;;12.80;95.20;;;;;;5033678;28;20698;-36
2022/05/01 08:29:37;;;;;;;13.27;10.97;;;12.80;95.20;;;;;;5048197;28;20200;-36
2022/05/01 08:32:06;;;;;;;12.50;10.67;;;12.90;95.10;;;;;;5048733;28;20238;-36
2022/05/01 08:34:35;;;;;;;11.37;9.20;;;13.00;95.20;;;;;;5033059;28;20204;-36
2022/05/01 08:37:03;;;;;;;12.37;10.20;;;13.10;95.10;;;;;;5028285;28;20307;-36
2022/05/01 08:39:30;;;;;;;11.83;10.00;;;13.10;95.10;;;;;;5038170;28;20795;-36
2022/05/01 08:41:59;;;;;;;13.03;11.40;;;13.20;95.20;;;;;;5032118;28;20219;-36
2022/05/01 08:44:36;;;;;;;13.23;10.47;;;13.20;95.20;;;;;;5028551;28;20204;-36
2022/05/01 08:47:22;;;;;;;13.80;9.43;;;13.20;95.20;;;;;;5028311;28;20244;-36
2022/05/01 08:49:58;;;;;;;10.90;9.40;;;13.30;95.30;;;;;;5036162;28;20204;-36
2022/05/01 08:52:27;;;;;;;12.95;10.75;;;13.40;95.30;;;;;;5043019;28;20302;-36
2022/05/01 08:54:56;;;;;;;12.03;10.17;;;13.40;95.20;;;;;;5036215;28;20200;-36
2022/05/01 08:57:24;;;;;;;10.97;9.83;;;13.50;95.10;;;;;;5048375;28;20259;-36
2022/05/01 08:59:57;;;;;;;13.57;11.23;;;13.60;95.20;;;;;;5045443;28;20300;-36
2022/05/01 09:02:25;;;;;;;10.67;9.47;;;13.60;95.10;;;;;;5036519;28;20231;-36
2022/05/01 09:04:53;;;;;;;10.87;9.17;;;13.70;95.30;;;;;;5034393;28;20208;-36
2022/05/01 09:07:20;;;;;;;15.50;11.02;;;13.70;95.30;;;;;;5039951;28;20205;-36
2022/05/01 09:09:51;;;;;;;11.17;9.80;;;13.80;95.50;;;;;;5050060;28;20197;-36
2022/05/01 09:15:06;;;;;;;11.80;10.27;;;13.80;95.20;;;;;;5050356;28;20565;-37
2022/05/01 09:17:33;;;;;;;12.03;10.77;;;13.80;95.10;;;;;;5047350;28;20209;-37
2022/05/01 09:20:10;;;;;;;12.33;10.20;;;13.90;95.10;;;;;;5043827;28;20761;-37
2022/05/01 09:22:58;;;;;;;9.23;7.67;;;14.00;94.80;;;;;;5030364;28;20196;-36
2022/05/01 09:25:27;;;;;;;8.50;7.53;;;14.00;95.00;;;;;;5042979;28;20706;-37
2022/05/01 09:27:59;;;;;;;7.60;6.82;;;14.00;95.10;;;;;;5042601;28;20221;-37
2022/05/01 09:30:32;;;;;;;9.70;8.20;;;14.10;95.10;;;;;;5047721;28;20231;-37
2022/05/01 09:33:02;;;;;;;8.77;6.90;;;14.20;95.00;;;;;;5037762;28;20990;-37
2022/05/01 09:35:31;;;;;;;8.95;6.40;;;14.20;95.00;;;;;;5044688;28;20195;-37
2022/05/01 09:38:17;;;;;;;7.95;6.80;;;14.20;95.00;;;;;;5046153;28;20298;-36
2022/05/01 09:41:17;;;;;;;8.98;7.35;;;14.30;95.20;;;;;;5040150;28;20264;-36
2022/05/01 09:43:46;;;;;;;9.07;7.77;;;14.40;95.20;;;;;;5026925;28;20232;-36
2022/05/01 09:46:24;;;;;;;8.63;6.97;;;14.50;95.20;;;;;;5037211;28;20678;-36
2022/05/01 09:49:10;;;;;;;7.55;6.72;;;14.50;95.10;;;;;;5026943;28;20200;-36
2022/05/01 09:51:51;;;;;;;6.90;6.20;;;14.60;95.20;;;;;;5028815;28;20586;-36
2022/05/01 09:54:25;;;;;;;7.03;6.10;;;14.70;95.40;;;;;;5030832;28;20679;-36
2022/05/01 09:56:57;;;;;;;7.57;6.70;;;14.80;95.50;;;;;;5010203;28;20236;-36
2022/05/01 09:59:29;;;;;;;7.37;6.03;;;15.00;95.70;;;;;;5035187;28;20679;-37
2022/05/01 10:02:03;;;;;;;6.72;6.03;;;15.10;95.80;;;;;;5038849;28;20208;-36
2022/05/01 10:04:36;;;;;;;8.02;6.45;;;15.30;95.90;;;;;;5048255;28;20199;-36
2022/05/01 10:07:08;;;;;;;7.30;6.60;;;15.40;95.90;;;;;;5044453;28;20223;-36
2022/05/01 10:09:35;;;;;;;6.60;5.95;;;15.50;95.80;;;;;;5051060;28;20745;-37
2022/05/01 10:12:07;;;;;;;7.97;6.82;;;15.60;96.20;;;;;;5049945;28;20227;-37
2022/05/01 10:14:35;;;;;;;8.52;7.13;;;15.70;95.70;;;;;;5040038;28;20702;-37
2022/05/01 10:17:06;;;;;;;7.95;6.90;;;15.80;95.50;;;;;;5045444;28;20224;-37
2022/05/01 10:19:33;;;;;;;9.65;7.47;;;15.90;95.80;;;;;;5044657;28;20239;-37
2022/05/01 10:22:03;;;;;;;7.10;6.40;;;16.00;95.70;;;;;;5049582;28;20196;-37
2022/05/01 10:24:33;;;;;;;8.70;7.07;;;16.10;95.90;;;;;;5050973;28;20617;-37
2022/05/01 10:27:12;;;;;;;10.73;8.07;;;16.20;95.70;;;;;;5048572;28;20565;-36
2022/05/01 10:33:44;;;;;;;7.55;6.57;;;16.40;95.50;;;;;;5039361;28;20315;-37
2022/05/01 10:36:58;;;;;;;8.23;6.45;;;16.50;95.50;;;;;;5033241;28;20280;-37
2022/05/01 10:39:33;;;;;;;7.95;7.15;;;16.50;95.70;;;;;;5036847;28;20203;-36
2022/05/01 10:42:01;;;;;;;7.72;6.93;;;16.50;95.50;;;;;;5029948;28;20227;-36
2022/05/01 10:44:35;;;;;;;9.18;8.25;;;16.60;95.50;;;;;;5036175;28;20209;-36
2022/05/01 10:47:12;;;;;;;7.70;6.90;;;16.60;95.00;;;;;;5050807;28;20281;-36
2022/05/01 10:49:42;;;;;;;7.75;6.57;;;16.60;95.20;;;;;;5019685;28;20686;-36
2022/05/01 10:52:18;;;;;;;8.32;7.20;;;16.70;95.20;;;;;;5032537;28;20585;-36
2022/05/01 10:54:59;;;;;;;9.30;8.05;;;16.70;94.80;;;;;;5047583;28;20686;-36
2022/05/01 10:57:31;;;;;;;8.32;7.53;;;16.70;94.70;;;;;;5050377;28;20331;-41
2022/05/01 11:00:12;;;;;;;9.88;7.15;;;16.70;94.80;;;;;;5052907;28;20665;-40
2022/05/01 11:02:45;;;;;;;7.38;6.63;;;16.70;94.90;;;;;;5069189;28;20203;-40
2022/05/01 11:05:42;;;;;;;8.63;6.82;;;16.70;94.90;;;;;;5058887;28;20307;-41
2022/05/01 11:08:19;;;;;;;7.63;6.82;;;16.80;94.80;;;;;;5034891;28;20200;-40
2022/05/01 11:10:50;;;;;;;7.93;7.07;;;16.80;94.70;;;;;;5041216;28;20868;-40
2022/05/01 11:13:32;;;;;;;7.57;6.72;;;16.80;94.80;;;;;;5045091;28;20226;-40
2022/05/01 11:16:00;;;;;;;7.45;6.65;;;16.80;94.80;;;;;;5048634;28;20273;-40
2022/05/01 11:18:43;;;;;;;6.63;6.03;;;16.80;94.90;;;;;;5045564;28;20210;-41
2022/05/01 11:21:19;;;;;;;8.02;6.80;;;16.90;94.60;;;;;;5029782;28;20291;-41
2022/05/01 11:23:58;;;;;;;8.25;6.70;;;17.00;94.40;;;;;;5033995;28;20207;-41
2022/05/01 11:26:28;;;;;;;6.82;6.10;;;17.00;94.40;;;;;;5029866;28;20327;-41
2022/05/01 11:29:14;;;;;;;6.38;5.78;;;17.00;94.20;;;;;;5049109;28;20257;-41
2022/05/01 11:31:44;;;;;;;8.23;6.80;;;17.00;94.60;;;;;;5049476;28;20204;-41
2022/05/01 11:34:21;;;;;;;8.77;7.30;;;17.00;94.40;;;;;;5029892;28;20219;-40
2022/05/01 11:36:55;;;;;;;8.20;6.50;;;17.00;94.30;;;;;;5035453;28;20204;-40
2022/05/01 11:39:47;;;;;;;8.73;6.72;;;17.00;94.40;;;;;;5046256;28;20847;-41
2022/05/01 11:42:24;;;;;;;6.40;5.80;;;17.00;94.20;;;;;;5029857;28;20209;-40
2022/05/01 11:44:52;;;;;;;7.03;6.32;;;17.00;94.50;;;;;;5029549;28;20733;-42
2022/05/01 11:47:20;;;;;;;7.40;6.30;;;17.00;94.50;;;;;;5028586;28;20209;-42
2022/05/01 11:49:48;;;;;;;6.25;5.65;;;17.10;94.50;;;;;;5028383;28;20205;-41
2022/05/01 11:52:16;;;;;;;7.85;6.90;;;17.10;94.70;;;;;;5037986;28;20228;-41
2022/05/01 11:55:06;;;;;;;7.25;6.45;;;17.20;94.30;;;;;;5045515;28;20208;-42
2022/05/01 12:03:09;;;;;;;7.57;6.80;;;17.20;93.50;;;;;;5028825;28;20228;-41
2022/05/01 12:05:45;;;;;;;8.43;6.70;;;17.20;93.60;;;;;;5029458;28;20232;-41
2022/05/01 12:08:16;;;;;;;6.65;5.78;;;17.10;93.90;;;;;;5045062;28;20208;-41
2022/05/01 12:10:47;;;;;;;6.85;6.05;;;17.10;94.10;;;;;;5044449;28;20586;-42
2022/05/01 12:13:22;;;;;;;7.72;6.70;;;17.20;94.30;;;;;;5043688;28;20323;-42
2022/05/01 12:15:53;;;;;;;10.02;7.80;;;17.30;94.00;;;;;;5027765;28;20211;-41
2022/05/01 12:18:21;;;;;;;8.32;6.88;;;17.20;93.10;;;;;;5035523;28;20223;-42
2022/05/01 12:20:48;;;;;;;6.90;6.20;;;17.20;93.20;;;;;;5026348;28;20197;-43
2022/05/01 12:23:21;;;;;;;8.43;6.45;;;17.20;93.80;;;;;;5031100;28;20223;-40
2022/05/01 12:25:51;;;;;;;8.88;6.50;;;17.20;93.90;;;;;;5045896;28;20216;-39
2022/05/01 12:28:19;;;;;;;6.75;6.00;;;17.30;93.80;;;;;;5048551;28;20694;-42
2022/05/01 12:30:52;;;;;;;6.40;5.35;;;17.30;94.10;;;;;;5034442;28;20204;-40
2022/05/01 12:33:24;;;;;;;7.20;5.80;;;17.40;94.20;;;;;;5036988;28;20227;-40
2022/05/01 12:35:58;;;;;;;6.72;5.78;;;17.50;94.30;;;;;;5040606;28;20220;-40
2022/05/01 12:38:28;;;;;;;7.55;5.53;;;17.60;94.30;;;;;;5040959;28;20205;-41
2022/05/01 12:44:20;;;;;;;7.03;6.35;;;17.80;94.30;;;;;;5028990;28;20216;-41
2022/05/01 12:46:52;;;;;;;9.50;6.25;;;18.00;93.90;;;;;;5028366;28;20200;-41
2022/05/01 12:49:29;;;;;;;6.20;5.60;;;18.10;94.00;;;;;;5038814;28;20725;-41
2022/05/01 12:51:56;;;;;;;7.00;5.70;;;18.20;94.20;;;;;;5039995;28;20204;-41
2022/05/01 12:54:28;;;;;;;10.68;6.90;;;18.30;94.40;;;;;;5041697;28;20305;-41
2022/05/01 12:56:58;;;;;;;7.20;6.50;;;18.40;94.00;;;;;;5046372;28;20326;-40
2022/05/01 12:59:27;;;;;;;6.90;6.20;;;18.40;94.20;;;;;;5046138;28;20201;-41
2022/05/01 13:01:56;;;;;;;7.05;6.22;;;18.40;94.10;;;;;;5034935;28;20231;-41
2022/05/01 13:04:28;;;;;;;6.65;6.03;;;18.40;93.90;;;;;;5026227;28;20208;-37
2022/05/01 13:06:56;;;;;;;6.90;6.25;;;18.40;94.00;;;;;;5037125;28;20224;-40
2022/05/01 13:09:26;;;;;;;8.05;5.90;;;18.40;94.10;;;;;;5030439;28;20216;-40
2022/05/01 13:12:02;;;;;;;9.20;6.85;;;18.40;94.20;;;;;;5027149;28;20623;-41
2022/05/01 13:14:32;;;;;;;6.80;6.13;;;18.40;93.70;;;;;;5027431;28;20256;-43
2022/05/01 13:17:10;;;;;;;8.10;6.90;;;18.50;93.60;;;;;;5027981;28;20213;-41
2022/05/01 13:19:43;;;;;;;9.75;7.25;;;18.50;92.90;;;;;;5041109;28;20286;-44
2022/05/01 13:22:11;;;;;;;8.02;7.22;;;18.40;93.20;;;;;;5044594;28;20308;-41